sensor_id;sensor_type;location;lat;lon;timestamp;P1;durP1;ratioP1;P2;durP2;ratioP2
62479;SDS011;48526;48.846;2.322;2022-10-16T04:02:32;0.00;;;0.00;;
62479;SDS011;48526;48.846;2.322;2022-10-16T04:04:58;1.00;;;0.00;;
62479;SDS011;48526;48.846;2.322;2022-10-16T04:07:23;0.00;;;0.00;;
62479;SDS011;48526;48.846;2.322;2022-10-16T04:09:49;2.00;;;0.00;;
62479;SDS011;48526;48.846;2.322;2022-10-16T04:12:16;1.00;;;0.00;;
62479;SDS011;48526;48.846;2.322;2022-10-16T04:14:42;0.00;;;0.00;;
62479;SDS011;48526;48.846;2.322;2022-10-16T04:17:07;0.00;;;0.00;;
62479;SDS011;48526;48.846;2.322;2022-10-16T04:19:33;0.00;;;0.00;;
62479;SDS011;48526;48.846;2.322;2022-10-16T04:21:58;0.00;;;0.00;;
62479;SDS011;48526;48.846;2.322;2022-10-16T04:24:24;0.50;;;0.50;;
62479;SDS011;48526;48.846;2.322;2022-10-16T04:26:49;1.75;;;0.75;;
62479;SDS011;48526;48.846;2.322;2022-10-16T04:29:15;0.00;;;0.00;;
62479;SDS011;48526;48.846;2.322;2022-10-16T04:31:45;2.00;;;1.00;;
62479;SDS011;48526;48.846;2.322;2022-10-16T04:34:11;0.25;;;0.25;;
62479;SDS011;48526;48.846;2.322;2022-10-16T04:36:37;0.00;;;0.00;;
62479;SDS011;48526;48.846;2.322;2022-10-16T04:39:03;0.25;;;0.25;;
62479;SDS011;48526;48.846;2.322;2022-10-16T04:41:28;0.50;;;0.00;;
62479;SDS011;48526;48.846;2.322;2022-10-16T04:43:56;0.00;;;0.00;;
62479;SDS011;48526;48.846;2.322;2022-10-16T04:46:21;0.00;;;0.00;;
62479;SDS011;48526;48.846;2.322;2022-10-16T04:48:47;0.00;;;0.00;;
62479;SDS011;48526;48.846;2.322;2022-10-16T04:51:12;2.00;;;1.00;;
62479;SDS011;48526;48.846;2.322;2022-10-16T04:53:38;0.00;;;0.00;;
62479;SDS011;48526;48.846;2.322;2022-10-16T04:56:03;1.00;;;0.00;;
62479;SDS011;48526;48.846;2.322;2022-10-16T04:58:29;1.25;;;1.25;;
62479;SDS011;48526;48.846;2.322;2022-10-16T05:00:54;1.50;;;0.00;;
62479;SDS011;48526;48.846;2.322;2022-10-16T05:03:20;4.00;;;3.00;;
62479;SDS011;48526;48.846;2.322;2022-10-16T05:05:45;1.25;;;1.00;;
62479;SDS011;48526;48.846;2.322;2022-10-16T05:08:14;1.00;;;0.00;;
62479;SDS011;48526;48.846;2.322;2022-10-16T05:10:40;0.50;;;0.00;;
62479;SDS011;48526;48.846;2.322;2022-10-16T05:13:06;0.00;;;0.00;;
62479;SDS011;48526;48.846;2.322;2022-10-16T05:15:32;0.00;;;0.00;;
62479;SDS011;48526;48.846;2.322;2022-10-16T05:17:58;0.00;;;0.00;;
62479;SDS011;48526;48.846;2.322;2022-10-16T05:20:23;0.50;;;0.00;;
62479;SDS011;48526;48.846;2.322;2022-10-16T05:22:48;1.00;;;1.00;;
62479;SDS011;48526;48.846;2.322;2022-10-16T05:25:14;1.00;;;0.00;;
62479;SDS011;48526;48.846;2.322;2022-10-16T05:27:39;1.50;;;1.00;;
62479;SDS011;48526;48.846;2.322;2022-10-16T05:30:05;1.00;;;1.00;;
62479;SDS011;48526;48.846;2.322;2022-10-16T05:32:34;1.25;;;0.00;;
62479;SDS011;48526;48.846;2.322;2022-10-16T05:35:00;0.00;;;0.00;;
62479;SDS011;48526;48.846;2.322;2022-10-16T05:37:27;0.00;;;0.00;;
62479;SDS011;48526;48.846;2.322;2022-10-16T05:39:52;0.00;;;0.00;;
62479;SDS011;48526;48.846;2.322;2022-10-16T05:42:18;0.00;;;0.00;;
62479;SDS011;48526;48.846;2.322;2022-10-16T05:44:43;0.75;;;0.00;;
62479;SDS011;48526;48.846;2.322;2022-10-16T05:47:09;0.00;;;0.00;;
62479;SDS011;48526;48.846;2.322;2022-10-16T05:49:35;1.00;;;1.00;;
62479;SDS011;48526;48.846;2.322;2022-10-16T05:52:01;0.25;;;0.00;;
62479;SDS011;48526;48.846;2.322;2022-10-16T05:54:26;0.00;;;0.00;;
62479;SDS011;48526;48.846;2.322;2022-10-16T05:56:52;1.00;;;1.00;;
62479;SDS011;48526;48.846;2.322;2022-10-16T05:59:17;0.00;;;0.00;;
62479;SDS011;48526;48.846;2.322;2022-10-16T06:01:43;0.00;;;0.00;;
62479;SDS011;48526;48.846;2.322;2022-10-16T06:04:08;0.00;;;0.00;;
62479;SDS011;48526;48.846;2.322;2022-10-16T06:06:34;0.00;;;0.00;;
62479;SDS011;48526;48.846;2.322;2022-10-16T06:09:01;0.00;;;0.00;;
62479;SDS011;48526;48.846;2.322;2022-10-16T06:11:28;0.00;;;0.00;;
62479;SDS011;48526;48.846;2.322;2022-10-16T06:13:55;0.00;;;0.00;;
62479;SDS011;48526;48.846;2.322;2022-10-16T06:16:22;0.00;;;0.00;;
62479;SDS011;48526;48.846;2.322;2022-10-16T06:18:50;0.00;;;0.00;;
62479;SDS011;48526;48.846;2.322;2022-10-16T06:21:16;0.00;;;0.00;;
62479;SDS011;48526;48.846;2.322;2022-10-16T06:23:44;0.25;;;0.25;;
62479;SDS011;48526;48.846;2.322;2022-10-16T06:26:12;0.00;;;0.00;;
62479;SDS011;48526;48.846;2.322;2022-10-16T06:28:39;1.00;;;1.00;;
62479;SDS011;48526;48.846;2.322;2022-10-16T06:31:05;0.25;;;0.25;;
62479;SDS011;48526;48.846;2.322;2022-10-16T06:33:32;0.00;;;0.00;;
62479;SDS011;48526;48.846;2.322;2022-10-16T06:36:01;1.00;;;1.00;;
62479;SDS011;48526;48.846;2.322;2022-10-16T06:38:28;1.00;;;0.00;;
62479;SDS011;48526;48.846;2.322;2022-10-16T06:40:53;0.00;;;0.00;;
62479;SDS011;48526;48.846;2.322;2022-10-16T06:43:21;2.00;;;1.00;;
62479;SDS011;48526;48.846;2.322;2022-10-16T06:46:07;2.00;;;0.25;;
62479;SDS011;48526;48.846;2.322;2022-10-16T06:48:48;0.00;;;0.00;;
62479;SDS011;48526;48.846;2.322;2022-10-16T07:18:40;0.00;;;0.00;;
62479;SDS011;48526;48.846;2.322;2022-10-16T07:24:58;0.50;;;0.50;;
62479;SDS011;48526;48.846;2.322;2022-10-16T07:27:26;2.00;;;1.00;;
62479;SDS011;48526;48.846;2.322;2022-10-16T07:29:53;1.00;;;1.00;;
62479;SDS011;48526;48.846;2.322;2022-10-16T07:32:18;1.75;;;0.50;;
62479;SDS011;48526;48.846;2.322;2022-10-16T07:34:43;2.25;;;1.00;;
62479;SDS011;48526;48.846;2.322;2022-10-16T07:37:09;1.25;;;1.25;;
62479;SDS011;48526;48.846;2.322;2022-10-16T07:39:34;1.50;;;1.50;;
62479;SDS011;48526;48.846;2.322;2022-10-16T07:41:59;3.00;;;3.00;;
62479;SDS011;48526;48.846;2.322;2022-10-16T07:44:25;1.50;;;1.50;;
62479;SDS011;48526;48.846;2.322;2022-10-16T07:46:50;1.00;;;1.00;;
62479;SDS011;48526;48.846;2.322;2022-10-16T07:49:16;1.25;;;1.25;;
62479;SDS011;48526;48.846;2.322;2022-10-16T07:51:41;1.50;;;1.50;;
62479;SDS011;48526;48.846;2.322;2022-10-16T07:54:08;1.00;;;1.00;;
62479;SDS011;48526;48.846;2.322;2022-10-16T07:56:34;2.75;;;2.00;;
62479;SDS011;48526;48.846;2.322;2022-10-16T07:58:59;5.50;;;3.75;;
62479;SDS011;48526;48.846;2.322;2022-10-16T08:01:25;3.00;;;3.00;;
62479;SDS011;48526;48.846;2.322;2022-10-16T08:03:51;1.00;;;1.00;;
62479;SDS011;48526;48.846;2.322;2022-10-16T08:06:18;3.00;;;3.00;;
62479;SDS011;48526;48.846;2.322;2022-10-16T08:08:44;6.25;;;3.75;;
62479;SDS011;48526;48.846;2.322;2022-10-16T08:11:10;3.25;;;3.00;;
62479;SDS011;48526;48.846;2.322;2022-10-16T08:13:35;2.50;;;2.00;;
62479;SDS011;48526;48.846;2.322;2022-10-16T08:16:01;1.25;;;1.00;;
62479;SDS011;48526;48.846;2.322;2022-10-16T08:18:26;3.00;;;3.00;;
62479;SDS011;48526;48.846;2.322;2022-10-16T08:20:58;2.00;;;1.75;;
62479;SDS011;48526;48.846;2.322;2022-10-16T08:23:25;3.00;;;3.00;;
62479;SDS011;48526;48.846;2.322;2022-10-16T08:25:51;2.50;;;2.50;;
62479;SDS011;48526;48.846;2.322;2022-10-16T08:28:18;2.50;;;2.50;;
62479;SDS011;48526;48.846;2.322;2022-10-16T08:30:43;1.25;;;1.25;;
62479;SDS011;48526;48.846;2.322;2022-10-16T08:33:09;4.00;;;1.25;;
62479;SDS011;48526;48.846;2.322;2022-10-16T08:35:34;2.25;;;2.00;;
62479;SDS011;48526;48.846;2.322;2022-10-16T08:37:59;4.00;;;2.00;;
62479;SDS011;48526;48.846;2.322;2022-10-16T08:40:26;4.75;;;2.75;;
62479;SDS011;48526;48.846;2.322;2022-10-16T09:12:32;4.00;;;4.00;;
62479;SDS011;48526;48.846;2.322;2022-10-16T09:15:53;2.50;;;2.50;;
62479;SDS011;48526;48.846;2.322;2022-10-16T09:29:53;7.00;;;4.00;;
62479;SDS011;48526;48.846;2.322;2022-10-16T09:36:33;5.00;;;3.00;;
62479;SDS011;48526;48.846;2.322;2022-10-16T09:39:52;3.50;;;3.50;;
62479;SDS011;48526;48.846;2.322;2022-10-16T09:42:31;5.00;;;4.50;;
62479;SDS011;48526;48.846;2.322;2022-10-16T10:02:28;5.25;;;5.25;;
62479;SDS011;48526;48.846;2.322;2022-10-16T10:05:47;6.00;;;6.00;;
62479;SDS011;48526;48.846;2.322;2022-10-16T11:15:58;2.00;;;2.00;;
62479;SDS011;48526;48.846;2.322;2022-10-16T11:21:22;2.25;;;1.00;;
62479;SDS011;48526;48.846;2.322;2022-10-16T11:24:08;2.00;;;2.00;;
62479;SDS011;48526;48.846;2.322;2022-10-16T11:26:41;1.25;;;1.25;;
62479;SDS011;48526;48.846;2.322;2022-10-16T11:29:35;3.00;;;2.00;;
62479;SDS011;48526;48.846;2.322;2022-10-16T11:32:24;0.00;;;0.00;;
62479;SDS011;48526;48.846;2.322;2022-10-16T11:42:36;2.50;;;2.50;;
62479;SDS011;48526;48.846;2.322;2022-10-16T11:45:30;5.75;;;4.25;;
62479;SDS011;48526;48.846;2.322;2022-10-16T11:51:40;4.00;;;4.00;;
62479;SDS011;48526;48.846;2.322;2022-10-16T11:54:54;2.00;;;1.00;;
62479;SDS011;48526;48.846;2.322;2022-10-16T12:04:05;3.00;;;2.00;;
62479;SDS011;48526;48.846;2.322;2022-10-16T12:07:08;2.50;;;2.50;;
62479;SDS011;48526;48.846;2.322;2022-10-16T12:09:36;2.75;;;2.00;;
62479;SDS011;48526;48.846;2.322;2022-10-16T12:15:03;2.75;;;2.75;;
62479;SDS011;48526;48.846;2.322;2022-10-16T12:17:44;5.00;;;4.00;;
62479;SDS011;48526;48.846;2.322;2022-10-16T12:22:41;1.00;;;1.00;;
62479;SDS011;48526;48.846;2.322;2022-10-16T12:28:35;3.00;;;3.00;;
62479;SDS011;48526;48.846;2.322;2022-10-16T12:31:47;2.25;;;2.00;;
62479;SDS011;48526;48.846;2.322;2022-10-16T12:34:19;2.00;;;2.00;;
62479;SDS011;48526;48.846;2.322;2022-10-16T12:37:11;6.50;;;5.25;;
62479;SDS011;48526;48.846;2.322;2022-10-16T12:39:42;2.50;;;1.25;;
62479;SDS011;48526;48.846;2.322;2022-10-16T12:42:22;4.00;;;4.00;;
62479;SDS011;48526;48.846;2.322;2022-10-16T12:45:21;2.50;;;1.75;;
62479;SDS011;48526;48.846;2.322;2022-10-16T12:48:18;7.00;;;7.00;;
62479;SDS011;48526;48.846;2.322;2022-10-16T12:50:46;9.25;;;8.00;;
62479;SDS011;48526;48.846;2.322;2022-10-16T12:53:19;6.50;;;5.25;;
62479;SDS011;48526;48.846;2.322;2022-10-16T13:13:43;4.00;;;4.00;;
62479;SDS011;48526;48.846;2.322;2022-10-16T13:27:54;2.75;;;2.50;;
62479;SDS011;48526;48.846;2.322;2022-10-16T13:30:25;3.50;;;3.50;;
62479;SDS011;48526;48.846;2.322;2022-10-16T13:35:57;4.50;;;4.50;;
62479;SDS011;48526;48.846;2.322;2022-10-16T13:38:24;5.25;;;4.00;;
62479;SDS011;48526;48.846;2.322;2022-10-16T13:40:56;5.00;;;5.00;;
62479;SDS011;48526;48.846;2.322;2022-10-16T13:43:24;4.00;;;3.25;;
62479;SDS011;48526;48.846;2.322;2022-10-16T13:45:53;6.00;;;5.00;;
62479;SDS011;48526;48.846;2.322;2022-10-16T13:48:23;6.25;;;4.25;;
62479;SDS011;48526;48.846;2.322;2022-10-16T13:51:00;4.25;;;4.25;;
62479;SDS011;48526;48.846;2.322;2022-10-16T13:53:46;5.25;;;5.25;;
62479;SDS011;48526;48.846;2.322;2022-10-16T13:56:16;7.00;;;6.25;;
62479;SDS011;48526;48.846;2.322;2022-10-16T13:58:43;4.00;;;4.00;;
62479;SDS011;48526;48.846;2.322;2022-10-16T14:02:14;5.00;;;5.00;;
62479;SDS011;48526;48.846;2.322;2022-10-16T14:04:08;3.50;;;3.50;;
62479;SDS011;48526;48.846;2.322;2022-10-16T14:06:35;3.50;;;3.50;;
62479;SDS011;48526;48.846;2.322;2022-10-16T14:09:18;5.00;;;4.00;;
62479;SDS011;48526;48.846;2.322;2022-10-16T14:11:56;3.50;;;3.25;;
62479;SDS011;48526;48.846;2.322;2022-10-16T14:14:24;4.00;;;4.00;;
62479;SDS011;48526;48.846;2.322;2022-10-16T14:16:51;4.50;;;4.25;;
62479;SDS011;48526;48.846;2.322;2022-10-16T14:19:21;6.00;;;4.75;;
62479;SDS011;48526;48.846;2.322;2022-10-16T14:21:49;5.00;;;5.00;;
62479;SDS011;48526;48.846;2.322;2022-10-16T14:24:32;6.50;;;5.50;;
62479;SDS011;48526;48.846;2.322;2022-10-16T14:26:58;4.50;;;4.50;;
62479;SDS011;48526;48.846;2.322;2022-10-16T14:29:25;8.00;;;8.00;;
62479;SDS011;48526;48.846;2.322;2022-10-16T14:36:49;3.75;;;3.75;;
62479;SDS011;48526;48.846;2.322;2022-10-16T14:39:19;5.00;;;4.50;;
62479;SDS011;48526;48.846;2.322;2022-10-16T14:41:47;4.00;;;3.75;;
62479;SDS011;48526;48.846;2.322;2022-10-16T14:44:13;6.00;;;6.00;;
62479;SDS011;48526;48.846;2.322;2022-10-16T14:46:40;4.75;;;4.75;;
62479;SDS011;48526;48.846;2.322;2022-10-16T14:51:35;7.25;;;6.00;;
62479;SDS011;48526;48.846;2.322;2022-10-16T14:54:07;6.25;;;6.00;;
62479;SDS011;48526;48.846;2.322;2022-10-16T14:59:16;6.00;;;6.00;;
62479;SDS011;48526;48.846;2.322;2022-10-16T15:01:44;8.25;;;6.75;;
62479;SDS011;48526;48.846;2.322;2022-10-16T15:04:11;8.25;;;7.75;;
62479;SDS011;48526;48.846;2.322;2022-10-16T15:06:37;11.25;;;10.75;;
62479;SDS011;48526;48.846;2.322;2022-10-16T15:09:03;10.50;;;8.25;;
62479;SDS011;48526;48.846;2.322;2022-10-16T15:11:28;7.50;;;7.50;;
62479;SDS011;48526;48.846;2.322;2022-10-16T15:13:54;7.00;;;6.00;;
62479;SDS011;48526;48.846;2.322;2022-10-16T15:16:19;10.00;;;9.00;;
62479;SDS011;48526;48.846;2.322;2022-10-16T15:18:45;10.00;;;8.50;;
62479;SDS011;48526;48.846;2.322;2022-10-16T15:21:18;9.25;;;7.50;;
62479;SDS011;48526;48.846;2.322;2022-10-16T15:23:49;8.00;;;7.75;;
62479;SDS011;48526;48.846;2.322;2022-10-16T15:26:15;10.00;;;8.00;;
62479;SDS011;48526;48.846;2.322;2022-10-16T15:28:41;6.25;;;6.00;;
62479;SDS011;48526;48.846;2.322;2022-10-16T15:31:06;5.00;;;5.00;;
62479;SDS011;48526;48.846;2.322;2022-10-16T15:33:31;5.25;;;4.00;;
62479;SDS011;48526;48.846;2.322;2022-10-16T15:35:57;7.00;;;6.00;;
62479;SDS011;48526;48.846;2.322;2022-10-16T15:38:23;5.50;;;5.50;;
62479;SDS011;48526;48.846;2.322;2022-10-16T15:40:48;3.75;;;3.75;;
62479;SDS011;48526;48.846;2.322;2022-10-16T15:43:16;9.50;;;7.75;;
62479;SDS011;48526;48.846;2.322;2022-10-16T15:45:43;9.25;;;8.75;;
62479;SDS011;48526;48.846;2.322;2022-10-16T15:50:58;7.00;;;5.50;;
62479;SDS011;48526;48.846;2.322;2022-10-16T15:53:25;12.00;;;11.25;;
62479;SDS011;48526;48.846;2.322;2022-10-16T15:55:50;10.00;;;8.50;;
62479;SDS011;48526;48.846;2.322;2022-10-16T15:58:35;9.75;;;9.25;;
62479;SDS011;48526;48.846;2.322;2022-10-16T16:01:31;10.50;;;8.00;;
62479;SDS011;48526;48.846;2.322;2022-10-16T16:04:16;9.25;;;8.75;;
62479;SDS011;48526;48.846;2.322;2022-10-16T16:09:52;7.75;;;6.50;;
62479;SDS011;48526;48.846;2.322;2022-10-16T16:12:18;12.25;;;9.50;;
62479;SDS011;48526;48.846;2.322;2022-10-16T16:15:01;14.25;;;12.75;;
62479;SDS011;48526;48.846;2.322;2022-10-16T16:17:45;9.25;;;9.25;;
62479;SDS011;48526;48.846;2.322;2022-10-16T16:20:12;12.50;;;12.00;;
62479;SDS011;48526;48.846;2.322;2022-10-16T16:22:38;12.50;;;12.25;;
62479;SDS011;48526;48.846;2.322;2022-10-16T16:25:03;9.50;;;7.25;;
62479;SDS011;48526;48.846;2.322;2022-10-16T16:27:29;9.50;;;8.25;;
62479;SDS011;48526;48.846;2.322;2022-10-16T16:30:07;7.75;;;7.25;;
62479;SDS011;48526;48.846;2.322;2022-10-16T16:32:38;10.75;;;8.50;;
62479;SDS011;48526;48.846;2.322;2022-10-16T16:35:03;6.00;;;5.75;;
62479;SDS011;48526;48.846;2.322;2022-10-16T16:37:32;8.00;;;6.25;;
62479;SDS011;48526;48.846;2.322;2022-10-16T16:40:03;11.50;;;8.25;;
62479;SDS011;48526;48.846;2.322;2022-10-16T16:42:29;6.75;;;6.00;;
62479;SDS011;48526;48.846;2.322;2022-10-16T16:44:54;8.25;;;7.25;;
62479;SDS011;48526;48.846;2.322;2022-10-16T16:47:21;6.50;;;6.00;;
62479;SDS011;48526;48.846;2.322;2022-10-16T16:49:47;8.25;;;8.00;;
62479;SDS011;48526;48.846;2.322;2022-10-16T16:52:13;9.75;;;8.25;;
62479;SDS011;48526;48.846;2.322;2022-10-16T16:54:39;9.25;;;9.00;;
62479;SDS011;48526;48.846;2.322;2022-10-16T16:57:05;9.00;;;9.00;;
62479;SDS011;48526;48.846;2.322;2022-10-16T16:59:30;8.25;;;8.25;;
62479;SDS011;48526;48.846;2.322;2022-10-16T17:01:59;13.50;;;12.00;;
62479;SDS011;48526;48.846;2.322;2022-10-16T17:04:25;12.50;;;12.00;;
62479;SDS011;48526;48.846;2.322;2022-10-16T17:06:52;11.50;;;10.75;;
62479;SDS011;48526;48.846;2.322;2022-10-16T17:09:19;8.50;;;8.50;;
62479;SDS011;48526;48.846;2.322;2022-10-16T17:11:47;9.50;;;9.50;;
62479;SDS011;48526;48.846;2.322;2022-10-16T17:14:14;15.00;;;14.00;;
62479;SDS011;48526;48.846;2.322;2022-10-16T17:16:40;10.25;;;9.25;;
62479;SDS011;48526;48.846;2.322;2022-10-16T17:19:10;11.00;;;11.00;;
62479;SDS011;48526;48.846;2.322;2022-10-16T17:21:49;11.50;;;11.50;;
62479;SDS011;48526;48.846;2.322;2022-10-16T17:24:18;9.50;;;9.50;;
62479;SDS011;48526;48.846;2.322;2022-10-16T17:27:17;7.00;;;7.00;;
62479;SDS011;48526;48.846;2.322;2022-10-16T17:33:23;13.50;;;13.50;;
62479;SDS011;48526;48.846;2.322;2022-10-16T17:35:48;12.25;;;11.75;;
62479;SDS011;48526;48.846;2.322;2022-10-16T17:38:14;12.75;;;9.25;;
62479;SDS011;48526;48.846;2.322;2022-10-16T17:40:40;13.75;;;11.00;;
62479;SDS011;48526;48.846;2.322;2022-10-16T17:43:08;7.50;;;7.50;;
62479;SDS011;48526;48.846;2.322;2022-10-16T17:45:36;11.75;;;10.50;;
62479;SDS011;48526;48.846;2.322;2022-10-16T17:48:02;14.25;;;9.75;;
62479;SDS011;48526;48.846;2.322;2022-10-16T17:50:27;13.25;;;10.00;;
62479;SDS011;48526;48.846;2.322;2022-10-16T17:52:53;11.75;;;10.25;;
62479;SDS011;48526;48.846;2.322;2022-10-16T17:55:18;18.75;;;18.00;;
62479;SDS011;48526;48.846;2.322;2022-10-16T17:57:44;20.00;;;18.00;;
62479;SDS011;48526;48.846;2.322;2022-10-16T18:00:10;5.00;;;4.75;;
62479;SDS011;48526;48.846;2.322;2022-10-16T18:02:37;11.00;;;10.50;;
62479;SDS011;48526;48.846;2.322;2022-10-16T18:05:06;12.50;;;11.25;;
62479;SDS011;48526;48.846;2.322;2022-10-16T18:07:33;11.50;;;10.00;;
62479;SDS011;48526;48.846;2.322;2022-10-16T18:09:58;15.75;;;14.00;;
62479;SDS011;48526;48.846;2.322;2022-10-16T18:12:25;20.00;;;15.50;;
62479;SDS011;48526;48.846;2.322;2022-10-16T18:14:50;25.75;;;25.75;;
62479;SDS011;48526;48.846;2.322;2022-10-16T18:17:19;27.25;;;26.00;;
62479;SDS011;48526;48.846;2.322;2022-10-16T18:19:45;26.75;;;26.75;;
62479;SDS011;48526;48.846;2.322;2022-10-16T18:22:10;23.75;;;19.25;;
62479;SDS011;48526;48.846;2.322;2022-10-16T18:24:36;20.50;;;16.75;;
62479;SDS011;48526;48.846;2.322;2022-10-16T18:27:02;22.00;;;18.50;;
62479;SDS011;48526;48.846;2.322;2022-10-16T18:29:27;23.00;;;20.25;;
62479;SDS011;48526;48.846;2.322;2022-10-16T18:31:52;18.00;;;16.25;;
62479;SDS011;48526;48.846;2.322;2022-10-16T18:34:18;16.75;;;16.75;;
62479;SDS011;48526;48.846;2.322;2022-10-16T18:36:44;18.50;;;17.25;;
62479;SDS011;48526;48.846;2.322;2022-10-16T18:39:09;18.00;;;18.00;;
62479;SDS011;48526;48.846;2.322;2022-10-16T18:41:39;18.50;;;16.25;;
62479;SDS011;48526;48.846;2.322;2022-10-16T18:44:06;22.25;;;19.50;;
62479;SDS011;48526;48.846;2.322;2022-10-16T18:46:32;19.75;;;16.75;;
62479;SDS011;48526;48.846;2.322;2022-10-16T18:48:57;19.00;;;17.00;;
62479;SDS011;48526;48.846;2.322;2022-10-16T18:53:54;17.00;;;16.25;;
62479;SDS011;48526;48.846;2.322;2022-10-16T18:56:22;21.75;;;20.75;;
62479;SDS011;48526;48.846;2.322;2022-10-16T18:58:48;20.75;;;17.50;;
62479;SDS011;48526;48.846;2.322;2022-10-16T19:01:18;17.50;;;15.00;;
62479;SDS011;48526;48.846;2.322;2022-10-16T19:03:45;22.50;;;21.00;;
62479;SDS011;48526;48.846;2.322;2022-10-16T19:06:13;27.50;;;22.50;;
62479;SDS011;48526;48.846;2.322;2022-10-16T19:08:40;26.00;;;23.25;;
62479;SDS011;48526;48.846;2.322;2022-10-16T19:11:07;31.50;;;26.50;;
62479;SDS011;48526;48.846;2.322;2022-10-16T19:13:37;27.75;;;27.25;;
62479;SDS011;48526;48.846;2.322;2022-10-16T19:16:03;27.25;;;24.00;;
62479;SDS011;48526;48.846;2.322;2022-10-16T19:18:29;24.75;;;23.50;;
62479;SDS011;48526;48.846;2.322;2022-10-16T19:21:02;24.00;;;20.75;;
62479;SDS011;48526;48.846;2.322;2022-10-16T19:23:32;24.75;;;22.75;;
62479;SDS011;48526;48.846;2.322;2022-10-16T19:26:09;21.25;;;21.00;;
62479;SDS011;48526;48.846;2.322;2022-10-16T19:28:40;24.75;;;22.50;;
62479;SDS011;48526;48.846;2.322;2022-10-16T19:31:07;24.00;;;21.75;;
62479;SDS011;48526;48.846;2.322;2022-10-16T19:33:37;17.50;;;16.50;;
62479;SDS011;48526;48.846;2.322;2022-10-16T19:38:47;17.25;;;16.25;;
62479;SDS011;48526;48.846;2.322;2022-10-16T19:41:16;27.50;;;19.75;;
62479;SDS011;48526;48.846;2.322;2022-10-16T19:43:43;25.00;;;21.75;;
62479;SDS011;48526;48.846;2.322;2022-10-16T19:46:14;24.50;;;22.75;;
62479;SDS011;48526;48.846;2.322;2022-10-16T19:48:42;22.25;;;21.00;;
62479;SDS011;48526;48.846;2.322;2022-10-16T19:51:12;25.00;;;22.00;;
62479;SDS011;48526;48.846;2.322;2022-10-16T19:53:39;21.00;;;17.25;;
62479;SDS011;48526;48.846;2.322;2022-10-16T19:56:16;19.75;;;19.25;;
62479;SDS011;48526;48.846;2.322;2022-10-16T19:58:43;19.25;;;18.50;;
62479;SDS011;48526;48.846;2.322;2022-10-16T20:01:10;25.25;;;22.50;;
62479;SDS011;48526;48.846;2.322;2022-10-16T20:03:39;19.25;;;18.75;;
62479;SDS011;48526;48.846;2.322;2022-10-16T20:06:05;21.25;;;20.25;;
62479;SDS011;48526;48.846;2.322;2022-10-16T20:08:32;19.75;;;19.75;;
62479;SDS011;48526;48.846;2.322;2022-10-16T20:10:59;21.00;;;19.50;;
62479;SDS011;48526;48.846;2.322;2022-10-16T20:13:28;17.00;;;17.00;;
62479;SDS011;48526;48.846;2.322;2022-10-16T20:15:58;20.75;;;15.25;;
62479;SDS011;48526;48.846;2.322;2022-10-16T20:18:34;18.00;;;17.00;;
62479;SDS011;48526;48.846;2.322;2022-10-16T20:21:11;16.25;;;15.50;;
62479;SDS011;48526;48.846;2.322;2022-10-16T20:23:41;17.00;;;16.25;;
62479;SDS011;48526;48.846;2.322;2022-10-16T20:26:16;17.75;;;14.50;;
62479;SDS011;48526;48.846;2.322;2022-10-16T20:29:07;18.00;;;17.00;;
62479;SDS011;48526;48.846;2.322;2022-10-16T20:31:43;17.75;;;16.75;;
62479;SDS011;48526;48.846;2.322;2022-10-16T20:34:12;13.00;;;12.00;;
62479;SDS011;48526;48.846;2.322;2022-10-16T20:36:43;22.50;;;22.25;;
62479;SDS011;48526;48.846;2.322;2022-10-16T20:39:10;17.25;;;17.00;;
62479;SDS011;48526;48.846;2.322;2022-10-16T20:41:50;16.00;;;14.00;;
62479;SDS011;48526;48.846;2.322;2022-10-16T20:44:20;15.50;;;14.50;;
62479;SDS011;48526;48.846;2.322;2022-10-16T20:46:49;14.25;;;14.25;;
62479;SDS011;48526;48.846;2.322;2022-10-16T20:49:21;16.50;;;13.75;;
62479;SDS011;48526;48.846;2.322;2022-10-16T20:51:52;17.25;;;15.00;;
62479;SDS011;48526;48.846;2.322;2022-10-16T20:54:20;14.00;;;14.00;;
62479;SDS011;48526;48.846;2.322;2022-10-16T20:56:45;16.75;;;14.50;;
62479;SDS011;48526;48.846;2.322;2022-10-16T20:59:12;15.25;;;14.75;;
62479;SDS011;48526;48.846;2.322;2022-10-16T21:01:47;15.75;;;14.75;;
62479;SDS011;48526;48.846;2.322;2022-10-16T21:04:13;14.25;;;13.25;;
62479;SDS011;48526;48.846;2.322;2022-10-16T21:06:38;14.75;;;14.75;;
62479;SDS011;48526;48.846;2.322;2022-10-16T21:09:04;16.25;;;15.00;;
62479;SDS011;48526;48.846;2.322;2022-10-16T21:11:31;14.75;;;13.25;;
62479;SDS011;48526;48.846;2.322;2022-10-16T21:13:59;14.50;;;13.75;;
62479;SDS011;48526;48.846;2.322;2022-10-16T21:16:26;18.25;;;15.25;;
62479;SDS011;48526;48.846;2.322;2022-10-16T21:18:51;14.00;;;13.00;;
62479;SDS011;48526;48.846;2.322;2022-10-16T21:21:23;13.75;;;12.50;;
62479;SDS011;48526;48.846;2.322;2022-10-16T21:23:52;13.50;;;12.50;;
62479;SDS011;48526;48.846;2.322;2022-10-16T21:26:19;16.50;;;15.00;;
62479;SDS011;48526;48.846;2.322;2022-10-16T21:29:11;13.00;;;9.00;;
62479;SDS011;48526;48.846;2.322;2022-10-16T21:31:35;18.00;;;13.75;;
62479;SDS011;48526;48.846;2.322;2022-10-16T21:34:01;17.50;;;13.25;;
62479;SDS011;48526;48.846;2.322;2022-10-16T21:36:28;16.00;;;15.00;;
62479;SDS011;48526;48.846;2.322;2022-10-16T21:38:55;16.50;;;15.75;;
62479;SDS011;48526;48.846;2.322;2022-10-16T21:41:26;13.75;;;13.75;;
62479;SDS011;48526;48.846;2.322;2022-10-16T21:43:52;11.25;;;11.00;;
62479;SDS011;48526;48.846;2.322;2022-10-16T21:46:20;15.25;;;13.75;;
62479;SDS011;48526;48.846;2.322;2022-10-16T21:48:46;14.00;;;11.75;;
62479;SDS011;48526;48.846;2.322;2022-10-16T21:51:12;14.25;;;12.25;;
62479;SDS011;48526;48.846;2.322;2022-10-16T21:53:39;14.00;;;12.25;;
62479;SDS011;48526;48.846;2.322;2022-10-16T21:56:05;10.75;;;10.75;;
62479;SDS011;48526;48.846;2.322;2022-10-16T21:58:37;13.50;;;13.50;;
62479;SDS011;48526;48.846;2.322;2022-10-16T22:01:06;12.75;;;11.50;;
62479;SDS011;48526;48.846;2.322;2022-10-16T22:03:32;12.25;;;10.00;;
62479;SDS011;48526;48.846;2.322;2022-10-16T22:06:02;15.25;;;12.00;;
62479;SDS011;48526;48.846;2.322;2022-10-16T22:08:28;12.50;;;12.25;;
62479;SDS011;48526;48.846;2.322;2022-10-16T22:11:01;15.25;;;14.00;;
62479;SDS011;48526;48.846;2.322;2022-10-16T22:13:27;15.75;;;12.50;;
62479;SDS011;48526;48.846;2.322;2022-10-16T22:15:53;11.00;;;10.00;;
62479;SDS011;48526;48.846;2.322;2022-10-16T22:18:20;14.25;;;12.00;;
62479;SDS011;48526;48.846;2.322;2022-10-16T22:20:48;15.50;;;13.00;;
62479;SDS011;48526;48.846;2.322;2022-10-16T22:23:14;12.00;;;11.00;;
62479;SDS011;48526;48.846;2.322;2022-10-16T22:25:40;11.50;;;10.25;;
62479;SDS011;48526;48.846;2.322;2022-10-16T22:28:05;10.75;;;10.75;;
62479;SDS011;48526;48.846;2.322;2022-10-16T22:30:33;15.50;;;13.50;;
62479;SDS011;48526;48.846;2.322;2022-10-16T22:33:00;11.50;;;11.00;;
62479;SDS011;48526;48.846;2.322;2022-10-16T22:35:25;11.00;;;11.00;;
62479;SDS011;48526;48.846;2.322;2022-10-16T22:37:50;13.75;;;13.50;;
62479;SDS011;48526;48.846;2.322;2022-10-16T22:40:16;13.75;;;11.00;;
62479;SDS011;48526;48.846;2.322;2022-10-16T22:42:41;14.00;;;12.00;;
62479;SDS011;48526;48.846;2.322;2022-10-16T22:45:07;14.75;;;14.00;;
62479;SDS011;48526;48.846;2.322;2022-10-16T22:47:32;17.75;;;15.25;;
62479;SDS011;48526;48.846;2.322;2022-10-16T22:49:58;11.00;;;10.00;;
62479;SDS011;48526;48.846;2.322;2022-10-16T22:52:23;11.75;;;9.75;;
62479;SDS011;48526;48.846;2.322;2022-10-16T22:54:48;13.25;;;11.00;;
62479;SDS011;48526;48.846;2.322;2022-10-16T22:57:14;13.50;;;13.00;;
62479;SDS011;48526;48.846;2.322;2022-10-16T22:59:39;11.75;;;11.00;;
62479;SDS011;48526;48.846;2.322;2022-10-16T23:02:06;13.00;;;11.75;;